Tetien Trader — SYDU — position and weather

sailwx.info

Track history (hours):
 
Tides and Currents Weather Stations Pressure Air Temp Water Temp Dewpoint Dewpoint Depression Visibility Wind Speed Wind Dir Waves Ship Positions

Tetien Trader

Last reported at 2014-Jul-02 19:06 UTC. Time now 2014-Aug-22 03:59 UTC.
Position S 34°57' E 019°24'.
Warning: this ship's position is 50 days out of date.

Length 225 m; draft 8.2 m.

Type: Cargo ship. MMSI: 239875000.

Date/timePositionNaut miles runAvg speedWind from/ knotsBaromVisibWave heightAir tempDewpointWater temp
2014-Jul-02 19:06S 34°57' E 019°24'2011.3
2014-Jul-02 17:21S 34°57' E 019°49'2312.0
2014-Jul-02 15:24S 34°57' E 020°17'20812.3
2014-Jul-01 22:30S 34°34' E 024°29'3912.6
2014-Jul-01 19:25S 34°27' E 025°16'26713.4
2014-Jun-30 23:29S 33°12' E 030°24'1213.1
2014-Jun-30 22:33S 33°07' E 030°37'2913.3
2014-Jun-30 20:22S 32°56' E 031°09'1412.8
2014-Jun-30 19:18S 32°49' E 031°24'1012.4
2014-Jun-30 18:32S 32°45' E 031°34'2612.8
2014-Jun-30 16:29S 32°35' E 032°02'3913.1
2014-Jun-30 13:29S 32°20' E 032°46'  
Track history (hours):
 
Tides and Currents Weather Stations Pressure Air Temp Water Temp Dewpoint Dewpoint Depression Visibility Wind Speed Wind Dir Waves Ship Positions

Tetien Trader

Last reported at 2014-Jul-02 19:06 UTC. Time now 2014-Aug-22 03:59 UTC.
Position S 34°57' E 019°24'.
Warning: this ship's position is 50 days out of date.

Length 225 m; draft 8.2 m.

Type: Cargo ship. MMSI: 239875000.

Date/timePositionNaut miles runAvg speedWind from/ knotsBaromVisibWave heightAir tempDewpointWater temp
2014-Jul-02 19:06S 34°57' E 019°24'2011.3
2014-Jul-02 17:21S 34°57' E 019°49'2312.0
2014-Jul-02 15:24S 34°57' E 020°17'20812.3
2014-Jul-01 22:30S 34°34' E 024°29'3912.6
2014-Jul-01 19:25S 34°27' E 025°16'26713.4
2014-Jun-30 23:29S 33°12' E 030°24'1213.1
2014-Jun-30 22:33S 33°07' E 030°37'2913.3
2014-Jun-30 20:22S 32°56' E 031°09'1412.8
2014-Jun-30 19:18S 32°49' E 031°24'1012.4
2014-Jun-30 18:32S 32°45' E 031°34'2612.8
2014-Jun-30 16:29S 32°35' E 032°02'3913.1
2014-Jun-30 13:29S 32°20' E 032°46'  

Dump ship's entire track history